createdAt,value
2018-12-16T00:00:30.236Z,8.00
2018-12-16T00:02:59.970Z,8.52
2018-12-16T00:05:29.817Z,8.32
2018-12-16T00:07:59.232Z,8.46
2018-12-16T00:10:28.825Z,7.67
2018-12-16T00:12:58.518Z,7.78
2018-12-16T00:15:29.203Z,7.97
2018-12-16T00:17:59.147Z,8.15
2018-12-16T00:20:29.235Z,8.15
2018-12-16T00:22:58.990Z,7.91
2018-12-16T00:25:28.695Z,8.00
2018-12-16T00:27:58.251Z,8.09
2018-12-16T00:30:27.895Z,8.25
2018-12-16T00:32:57.068Z,8.43
2018-12-16T00:35:26.490Z,8.95
2018-12-16T00:37:56.152Z,8.89
2018-12-16T00:40:25.559Z,8.56
2018-12-16T00:42:55.454Z,8.40
2018-12-16T00:45:25.295Z,8.18
2018-12-16T00:47:54.463Z,7.78
2018-12-16T00:50:25.157Z,7.30
2018-12-16T00:52:54.566Z,7.15
2018-12-16T00:55:23.963Z,7.09
2018-12-16T00:57:54.396Z,7.04
2018-12-16T01:00:23.866Z,7.16
2018-12-16T01:02:53.199Z,7.40
2018-12-16T01:05:22.705Z,7.66
2018-12-16T01:07:51.977Z,7.78
2018-12-16T01:10:21.504Z,7.53
2018-12-16T01:12:50.582Z,7.32
2018-12-16T01:15:20.075Z,7.37
2018-12-16T01:17:49.567Z,7.50
2018-12-16T01:20:18.703Z,7.64
2018-12-16T01:22:48.358Z,7.36
2018-12-16T01:25:18.125Z,7.32
2018-12-16T01:27:47.351Z,7.47
2018-12-16T01:30:18.276Z,7.49
2018-12-16T01:32:47.676Z,7.40
2018-12-16T01:35:17.790Z,7.58
2018-12-16T01:37:47.804Z,7.29
2018-12-16T01:40:17.793Z,7.31
2018-12-16T01:42:47.192Z,7.33
2018-12-16T01:45:16.750Z,6.98
2018-12-16T01:47:46.955Z,7.05
2018-12-16T01:50:16.197Z,6.90
2018-12-16T01:52:50.117Z,6.86
2018-12-16T01:55:15.891Z,7.03
2018-12-16T01:57:45.398Z,7.15
2018-12-16T02:00:15.045Z,7.34
2018-12-16T02:02:44.606Z,7.17
2018-12-16T02:05:13.941Z,7.48
2018-12-16T02:07:43.960Z,7.34
2018-12-16T02:10:14.325Z,6.90
2018-12-16T02:12:45.633Z,6.98
2018-12-16T02:15:15.194Z,7.77
2018-12-16T02:17:45.605Z,8.08
2018-12-16T02:20:14.858Z,7.29
2018-12-16T02:22:44.531Z,6.76
2018-12-16T02:25:14.091Z,6.45
2018-12-16T02:27:44.230Z,6.26
2018-12-16T02:30:19.849Z,6.65
2018-12-16T02:32:49.714Z,6.87
2018-12-16T02:35:19.222Z,7.73
2018-12-16T02:37:48.831Z,8.22
2018-12-16T02:40:18.437Z,8.60
2018-12-16T02:42:48.044Z,8.53
2018-12-16T02:45:19.331Z,8.81
2018-12-16T02:47:49.893Z,8.80
2018-12-16T02:50:19.265Z,8.40
2018-12-16T02:52:49.237Z,9.05
2018-12-16T02:55:18.749Z,9.15
2018-12-16T02:57:48.407Z,9.42
2018-12-16T03:00:18.026Z,9.56
2018-12-16T03:02:47.325Z,8.71
2018-12-16T03:05:17.688Z,9.16
2018-12-16T03:07:46.997Z,8.98
2018-12-16T03:10:17.819Z,8.70
2018-12-16T03:12:47.749Z,8.51
2018-12-16T03:15:18.977Z,8.23
2018-12-16T03:17:49.678Z,7.89
2018-12-16T03:20:21.314Z,8.07
2018-12-16T03:22:51.324Z,8.23
2018-12-16T03:25:22.492Z,8.13
2018-12-16T03:27:52.140Z,8.08
2018-12-16T03:30:23.464Z,8.03
2018-12-16T03:32:52.326Z,8.16
2018-12-16T03:35:23.852Z,8.19
2018-12-16T03:37:54.297Z,8.44
2018-12-16T03:40:24.354Z,8.26
2018-12-16T03:42:54.142Z,8.16
2018-12-16T03:45:23.822Z,8.40
2018-12-16T03:47:53.144Z,8.30
2018-12-16T03:50:24.349Z,7.74
2018-12-16T03:52:54.492Z,7.36
2018-12-16T03:55:24.927Z,8.32
2018-12-16T03:57:55.413Z,8.22
2018-12-16T04:00:24.996Z,7.75
2018-12-16T04:02:54.601Z,7.78
2018-12-16T04:05:23.840Z,7.42
2018-12-16T04:07:53.374Z,7.45
2018-12-16T04:10:22.922Z,7.57
2018-12-16T04:12:53.365Z,7.75
2018-12-16T04:15:24.269Z,7.83
2018-12-16T04:17:55.793Z,7.96
2018-12-16T04:20:26.498Z,7.95
2018-12-16T04:22:56.210Z,8.05
2018-12-16T04:25:26.835Z,8.05
2018-12-16T04:27:58.583Z,8.14
2018-12-16T04:30:28.793Z,8.17
2018-12-16T04:33:01.198Z,8.11
2018-12-16T04:35:31.981Z,8.29
2018-12-16T04:38:01.975Z,8.28
2018-12-16T04:40:31.518Z,8.27
2018-12-16T04:43:02.338Z,8.34
2018-12-16T04:45:32.709Z,8.32
2018-12-16T04:48:03.744Z,8.48
2018-12-16T04:50:35.463Z,8.45
2018-12-16T04:53:06.281Z,8.40
2018-12-16T04:55:35.591Z,8.56
2018-12-16T04:58:05.478Z,8.60
2018-12-16T05:00:36.563Z,8.99
2018-12-16T05:03:06.825Z,9.00
2018-12-16T05:05:36.184Z,8.75
2018-12-16T05:08:06.654Z,8.69
2018-12-16T05:10:35.741Z,8.40
2018-12-16T05:13:06.361Z,9.10
2018-12-16T05:15:36.247Z,9.53
2018-12-16T05:18:06.415Z,9.47
2018-12-16T05:20:35.844Z,9.81
2018-12-16T05:23:06.267Z,10.00
2018-12-16T05:25:35.603Z,10.07
2018-12-16T05:28:04.769Z,10.03
2018-12-16T05:30:33.929Z,9.71
2018-12-16T05:33:03.264Z,8.73
2018-12-16T05:35:32.775Z,9.15
2018-12-16T05:38:02.163Z,8.58
2018-12-16T05:40:31.424Z,7.73
2018-12-16T05:43:01.527Z,7.45
2018-12-16T05:45:31.303Z,7.21
2018-12-16T05:48:01.250Z,7.51
2018-12-16T05:50:30.785Z,8.12
2018-12-16T05:53:00.121Z,8.82
2018-12-16T05:55:29.353Z,8.86
2018-12-16T05:57:58.525Z,8.42
2018-12-16T06:00:28.707Z,9.10
2018-12-16T06:02:58.978Z,9.27
2018-12-16T06:05:27.997Z,8.79
2018-12-16T06:07:57.468Z,9.16
2018-12-16T06:10:27.227Z,9.39
2018-12-16T06:12:56.423Z,8.78
2018-12-16T06:15:27.638Z,8.80
2018-12-16T06:17:57.370Z,8.96
2018-12-16T06:20:27.674Z,8.77
2018-12-16T06:22:57.360Z,9.19
2018-12-16T06:25:26.687Z,9.37
2018-12-16T06:27:56.541Z,9.65
2018-12-16T06:30:26.908Z,8.96
2018-12-16T06:32:57.212Z,8.54
2018-12-16T06:35:27.171Z,7.50
2018-12-16T06:37:56.268Z,7.49
2018-12-16T06:40:27.900Z,7.19
2018-12-16T06:42:57.086Z,8.35
2018-12-16T06:45:26.081Z,7.53
2018-12-16T06:47:55.581Z,6.88
2018-12-16T06:50:24.535Z,7.38
2018-12-16T06:52:53.701Z,8.10
2018-12-16T06:55:24.023Z,7.72
2018-12-16T06:57:53.489Z,7.45
2018-12-16T07:00:22.849Z,8.45
2018-12-16T07:02:54.565Z,8.69
2018-12-16T07:05:23.768Z,7.84
2018-12-16T07:07:53.138Z,8.88
2018-12-16T07:10:23.237Z,8.88
2018-12-16T07:12:53.550Z,9.23
2018-12-16T07:15:23.900Z,9.05
2018-12-16T07:17:53.657Z,9.33
2018-12-16T07:20:22.775Z,8.96
2018-12-16T07:22:51.806Z,7.99
2018-12-16T07:25:21.210Z,8.67
2018-12-16T07:27:50.431Z,9.26
2018-12-16T07:30:20.226Z,9.15
2018-12-16T07:32:49.557Z,9.14
2018-12-16T07:35:20.450Z,9.18
2018-12-16T07:37:49.788Z,9.01
2018-12-16T07:40:19.169Z,9.12
2018-12-16T07:42:49.018Z,9.18
2018-12-16T07:45:18.189Z,8.89
2018-12-16T07:47:47.710Z,8.58
2018-12-16T07:50:16.955Z,8.80
2018-12-16T07:52:46.124Z,8.86
2018-12-16T07:55:15.539Z,8.86
2018-12-16T07:57:45.643Z,9.04
2018-12-16T08:00:15.029Z,8.89
2018-12-16T08:02:44.429Z,8.92
2018-12-16T08:05:13.486Z,9.03
2018-12-16T08:07:42.996Z,9.00
2018-12-16T08:10:12.699Z,8.49
2018-12-16T08:12:42.319Z,8.87
2018-12-16T08:15:12.230Z,9.01
2018-12-16T08:17:42.450Z,9.25
2018-12-16T08:20:12.276Z,9.01
2018-12-16T08:22:41.434Z,9.34
2018-12-16T08:25:11.603Z,9.89
2018-12-16T08:27:41.389Z,9.89
2018-12-16T08:30:11.164Z,9.87
2018-12-16T08:32:41.108Z,9.80
2018-12-16T08:35:10.495Z,9.51
2018-12-16T08:37:39.686Z,9.20
2018-12-16T08:40:09.036Z,8.70
2018-12-16T08:42:38.270Z,9.00
2018-12-16T08:45:08.569Z,9.45
2018-12-16T08:47:38.255Z,9.88
2018-12-16T08:50:07.641Z,9.99
2018-12-16T08:52:36.971Z,10.14
2018-12-16T08:55:06.460Z,10.40
2018-12-16T08:57:36.171Z,9.86
2018-12-16T09:00:05.732Z,9.98
2018-12-16T09:02:35.181Z,10.39
2018-12-16T09:05:06.130Z,9.76
2018-12-16T09:07:37.380Z,8.91
2018-12-16T09:10:05.373Z,9.75
2018-12-16T09:12:35.900Z,9.71
2018-12-16T09:15:05.334Z,10.26
2018-12-16T09:17:35.387Z,10.21
2018-12-16T09:20:04.900Z,10.04
2018-12-16T09:22:34.225Z,9.74
2018-12-16T09:25:03.480Z,10.02
2018-12-16T09:27:32.688Z,10.08
2018-12-16T09:30:01.755Z,10.04
2018-12-16T09:32:31.024Z,9.89
2018-12-16T09:35:00.174Z,9.29
2018-12-16T09:37:30.115Z,10.04
2018-12-16T09:39:59.381Z,10.05
2018-12-16T09:42:28.874Z,10.33
2018-12-16T09:44:58.835Z,10.02
2018-12-16T09:47:28.113Z,9.85
2018-12-16T09:49:58.019Z,9.76
2018-12-16T09:52:27.854Z,9.49
2018-12-16T09:54:58.000Z,9.47
2018-12-16T09:57:28.899Z,9.30
2018-12-16T09:59:56.718Z,9.41
2018-12-16T10:02:25.909Z,9.40
2018-12-16T10:04:55.591Z,9.92
2018-12-16T10:07:24.569Z,9.95
2018-12-16T10:09:53.829Z,8.63
2018-12-16T10:12:24.030Z,9.38
2018-12-16T10:14:53.528Z,9.43
2018-12-16T10:17:22.754Z,9.39
2018-12-16T10:19:52.068Z,9.48
2018-12-16T10:22:22.130Z,9.62
2018-12-16T10:24:52.009Z,10.02
2018-12-16T10:27:22.485Z,9.87
2018-12-16T10:29:51.864Z,9.13
2018-12-16T10:32:21.577Z,9.77
2018-12-16T10:34:51.138Z,9.63
2018-12-16T10:37:20.866Z,9.50
2018-12-16T10:39:50.294Z,9.34
2018-12-16T10:42:19.616Z,8.88
2018-12-16T10:44:49.124Z,9.38
2018-12-16T10:47:18.535Z,9.09
2018-12-16T10:49:47.702Z,8.57
2018-12-16T10:52:17.603Z,9.08
2018-12-16T10:54:47.019Z,9.17
2018-12-16T10:57:17.333Z,8.96
2018-12-16T10:59:47.335Z,9.51
2018-12-16T11:02:16.588Z,9.12
2018-12-16T11:04:45.970Z,9.63
2018-12-16T11:07:15.249Z,9.31
2018-12-16T11:09:44.845Z,9.66
2018-12-16T11:12:14.801Z,9.79
2018-12-16T11:14:47.260Z,9.74
2018-12-16T11:17:16.642Z,9.43
2018-12-16T11:19:45.799Z,9.98
2018-12-16T11:22:16.011Z,10.19
2018-12-16T11:24:45.564Z,10.30
2018-12-16T11:27:14.666Z,10.35
2018-12-16T11:29:44.520Z,9.86
2018-12-16T11:32:15.461Z,8.94
2018-12-16T11:34:45.673Z,9.33
2018-12-16T11:37:15.119Z,9.41
2018-12-16T11:39:45.083Z,9.50
2018-12-16T11:42:14.438Z,9.35
2018-12-16T11:44:44.440Z,8.48
2018-12-16T11:47:13.807Z,8.21
2018-12-16T11:49:44.400Z,8.08
2018-12-16T11:52:12.718Z,8.59
2018-12-16T11:54:41.960Z,8.52
2018-12-16T11:57:11.137Z,9.19
2018-12-16T11:59:40.502Z,9.22
2018-12-16T12:02:09.693Z,9.17
2018-12-16T12:04:38.804Z,9.43
2018-12-16T12:07:07.947Z,8.95
2018-12-16T12:09:37.146Z,9.61
2018-12-16T12:12:06.526Z,9.21
2018-12-16T12:14:35.718Z,9.09
2018-12-16T12:17:04.954Z,9.02
2018-12-16T12:19:40.613Z,8.97
2018-12-16T12:22:10.083Z,8.71
2018-12-16T12:24:39.108Z,9.33
2018-12-16T12:27:08.279Z,9.37
2018-12-16T12:29:37.486Z,9.35
2018-12-16T12:32:06.511Z,9.07
2018-12-16T12:34:35.779Z,8.80
2018-12-16T12:37:04.781Z,8.49
2018-12-16T12:39:33.803Z,8.74
2018-12-16T12:42:02.983Z,8.99
2018-12-16T12:44:32.033Z,8.62
2018-12-16T12:47:01.097Z,8.37
2018-12-16T12:49:30.367Z,7.65
2018-12-16T12:51:59.541Z,7.23
2018-12-16T12:54:29.387Z,7.11
2018-12-16T12:56:58.774Z,6.78
2018-12-16T12:59:28.582Z,6.23
2018-12-16T13:01:58.191Z,6.08
2018-12-16T13:04:27.702Z,6.08
2018-12-16T13:06:56.872Z,6.00
2018-12-16T13:09:26.029Z,5.94
2018-12-16T13:11:57.047Z,6.01
2018-12-16T13:14:24.860Z,5.71
2018-12-16T13:16:54.097Z,5.62
2018-12-16T13:19:23.387Z,5.55
2018-12-16T13:21:52.582Z,5.35
2018-12-16T13:24:21.908Z,5.27
2018-12-16T13:26:51.216Z,5.28
2018-12-16T13:29:20.438Z,4.99
2018-12-16T13:31:49.606Z,5.08
2018-12-16T13:34:19.257Z,4.88
2018-12-16T13:36:48.476Z,4.77
2018-12-16T13:39:17.513Z,4.63
2018-12-16T13:41:46.681Z,4.61
2018-12-16T13:44:15.825Z,4.78
2018-12-16T13:46:44.994Z,4.75
2018-12-16T13:49:14.133Z,4.75
2018-12-16T13:51:43.212Z,4.98
2018-12-16T13:54:12.468Z,4.79
2018-12-16T13:56:41.759Z,5.04
2018-12-16T13:59:10.868Z,5.11
2018-12-16T14:01:39.952Z,5.05
2018-12-16T14:04:09.083Z,4.85
2018-12-16T14:06:38.233Z,4.74
2018-12-16T14:09:08.227Z,4.59
2018-12-16T14:11:37.657Z,4.72
2018-12-16T14:14:07.630Z,4.78
2018-12-16T14:16:36.745Z,4.77
2018-12-16T14:19:06.011Z,4.73
2018-12-16T14:21:35.166Z,4.60
2018-12-16T14:24:04.147Z,4.79
2018-12-16T14:26:33.245Z,4.83
2018-12-16T14:29:02.335Z,4.78
2018-12-16T14:31:31.561Z,4.68
2018-12-16T14:34:00.769Z,4.70
2018-12-16T14:36:29.882Z,4.43
2018-12-16T14:38:58.968Z,4.68
2018-12-16T14:41:28.162Z,4.67
2018-12-16T14:43:57.267Z,4.36
2018-12-16T14:46:26.403Z,4.46
2018-12-16T14:48:56.027Z,4.45
2018-12-16T14:51:25.155Z,4.73
2018-12-16T14:53:54.895Z,4.67
2018-12-16T14:56:24.301Z,4.59
2018-12-16T14:58:53.879Z,4.35
2018-12-16T15:01:24.371Z,4.26
2018-12-16T15:03:53.857Z,4.15
2018-12-16T15:06:23.001Z,4.23
2018-12-16T15:08:52.474Z,4.27
2018-12-16T15:11:21.912Z,4.34
2018-12-16T15:13:51.171Z,4.19
2018-12-16T15:16:20.926Z,4.30
2018-12-16T15:18:50.843Z,4.32
2018-12-16T15:21:20.113Z,4.26
2018-12-16T15:23:49.759Z,4.13
2018-12-16T15:26:18.986Z,4.06
2018-12-16T15:28:48.621Z,4.02
2018-12-16T15:31:17.808Z,4.03
2018-12-16T15:33:47.343Z,4.00
2018-12-16T15:36:16.436Z,4.16
2018-12-16T15:38:45.988Z,3.95
2018-12-16T15:41:15.366Z,3.95
2018-12-16T15:43:44.592Z,4.06
2018-12-16T15:46:14.254Z,4.05
2018-12-16T15:48:43.651Z,3.90
2018-12-16T15:51:13.047Z,3.82
2018-12-16T15:53:43.176Z,3.86
2018-12-16T15:56:12.823Z,3.79
2018-12-16T15:58:42.883Z,3.72
2018-12-16T16:01:12.191Z,3.68
2018-12-16T16:03:41.752Z,3.84
2018-12-16T16:06:10.902Z,3.57
2018-12-16T16:08:40.140Z,3.48
2018-12-16T16:11:09.503Z,3.45
2018-12-16T16:13:38.735Z,3.67
2018-12-16T16:16:08.130Z,3.53
2018-12-16T16:18:37.671Z,3.43
2018-12-16T16:21:07.336Z,3.36
2018-12-16T16:23:36.559Z,3.37
2018-12-16T16:26:06.119Z,3.53
2018-12-16T16:28:35.897Z,3.56
2018-12-16T16:31:05.265Z,3.30
2018-12-16T16:33:34.855Z,3.47
2018-12-16T16:36:04.238Z,3.43
2018-12-16T16:38:33.426Z,3.63
2018-12-16T16:41:02.761Z,3.47
2018-12-16T16:43:31.845Z,3.56
2018-12-16T16:46:01.276Z,3.51
2018-12-16T16:48:30.511Z,3.64
2018-12-16T16:51:00.251Z,3.67
2018-12-16T16:53:29.836Z,3.47
2018-12-16T16:55:59.551Z,3.46
2018-12-16T16:58:29.077Z,3.54
2018-12-16T17:00:58.181Z,3.54
2018-12-16T17:03:27.326Z,3.64
2018-12-16T17:05:56.549Z,3.59
2018-12-16T17:08:25.642Z,3.56
2018-12-16T17:10:54.889Z,3.58
2018-12-16T17:13:24.059Z,3.68
2018-12-16T17:15:53.207Z,3.56
2018-12-16T17:18:22.417Z,3.50
2018-12-16T17:20:51.578Z,3.70
2018-12-16T17:23:20.735Z,3.55
2018-12-16T17:25:49.931Z,3.52
2018-12-16T17:28:19.167Z,3.20
2018-12-16T17:30:48.430Z,3.55
2018-12-16T17:33:17.933Z,3.58
2018-12-16T17:35:47.215Z,3.53
2018-12-16T17:38:16.325Z,3.53
2018-12-16T17:40:45.570Z,3.52
2018-12-16T17:43:15.057Z,3.47
2018-12-16T17:45:44.505Z,3.49
2018-12-16T17:48:13.911Z,3.54
2018-12-16T17:50:43.443Z,3.66
2018-12-16T17:53:12.607Z,3.85
2018-12-16T17:55:41.883Z,3.74
2018-12-16T17:58:11.168Z,3.64
2018-12-16T18:00:40.560Z,3.97
2018-12-16T18:03:09.907Z,3.87
2018-12-16T18:05:39.239Z,3.91
2018-12-16T18:08:08.314Z,3.93
2018-12-16T18:10:38.126Z,3.84
2018-12-16T18:13:07.260Z,3.76
2018-12-16T18:15:36.502Z,3.78
2018-12-16T18:18:05.983Z,3.73
2018-12-16T18:20:35.161Z,3.74
2018-12-16T18:23:04.353Z,3.56
2018-12-16T18:25:33.434Z,3.66
2018-12-16T18:28:02.558Z,3.77
2018-12-16T18:30:31.756Z,3.61
2018-12-16T18:33:01.000Z,3.54
2018-12-16T18:35:30.158Z,3.66
2018-12-16T18:37:59.401Z,3.72
2018-12-16T18:40:28.725Z,3.74
2018-12-16T18:42:57.911Z,3.48
2018-12-16T18:45:26.978Z,3.57
2018-12-16T18:47:56.428Z,3.65
2018-12-16T18:50:25.704Z,3.61
2018-12-16T18:52:54.846Z,3.62
2018-12-16T18:55:24.406Z,3.44
2018-12-16T18:57:53.502Z,3.28
2018-12-16T19:00:22.761Z,3.38
2018-12-16T19:02:52.051Z,3.40
2018-12-16T19:05:21.173Z,3.27
2018-12-16T19:07:50.330Z,3.29
2018-12-16T19:10:19.803Z,3.27
2018-12-16T19:12:49.129Z,3.26
2018-12-16T19:15:18.782Z,3.09
2018-12-16T19:17:50.797Z,3.14
2018-12-16T19:20:20.431Z,3.07
2018-12-16T19:22:49.785Z,3.23
2018-12-16T19:25:19.139Z,3.20
2018-12-16T19:27:48.325Z,3.07
2018-12-16T19:30:17.754Z,3.05
2018-12-16T19:32:46.888Z,3.16
2018-12-16T19:35:16.018Z,3.06
2018-12-16T19:37:45.320Z,3.08
2018-12-16T19:40:14.531Z,2.95
2018-12-16T19:42:43.858Z,3.00
2018-12-16T19:45:13.523Z,2.97
2018-12-16T19:47:49.417Z,2.92
2018-12-16T19:50:13.364Z,2.75
2018-12-16T19:52:42.001Z,2.82
2018-12-16T19:55:11.426Z,2.71
2018-12-16T19:57:40.612Z,2.82
2018-12-16T20:00:10.475Z,2.77
2018-12-16T20:02:40.632Z,2.70
2018-12-16T20:05:14.107Z,2.64
2018-12-16T20:07:43.479Z,2.60
2018-12-16T20:10:13.734Z,2.68
2018-12-16T20:12:43.074Z,2.51
2018-12-16T20:15:12.678Z,2.64
2018-12-16T20:17:42.198Z,2.58
2018-12-16T20:20:11.408Z,2.50
2018-12-16T20:22:40.629Z,2.49
2018-12-16T20:25:09.925Z,2.52
2018-12-16T20:27:39.585Z,2.49
2018-12-16T20:30:10.698Z,2.71
2018-12-16T20:32:39.912Z,2.65
2018-12-16T20:35:08.998Z,2.53
2018-12-16T20:37:38.241Z,2.50
2018-12-16T20:40:08.368Z,2.58
2018-12-16T20:42:37.510Z,2.39
2018-12-16T20:45:08.218Z,2.44
2018-12-16T20:47:37.350Z,2.31
2018-12-16T20:50:14.862Z,2.38
2018-12-16T20:52:44.181Z,2.26
2018-12-16T20:55:13.431Z,2.14
2018-12-16T20:57:42.731Z,2.32
2018-12-16T21:00:12.346Z,2.31
2018-12-16T21:02:41.477Z,2.25
2018-12-16T21:05:10.629Z,2.21
2018-12-16T21:07:39.864Z,2.20
2018-12-16T21:10:09.011Z,2.19
2018-12-16T21:12:43.276Z,2.14
2018-12-16T21:15:17.462Z,2.06
2018-12-16T21:17:51.749Z,2.05
2018-12-16T21:20:21.011Z,1.89
2018-12-16T21:22:50.166Z,2.02
2018-12-16T21:25:19.802Z,1.82
2018-12-16T21:27:48.905Z,1.97
2018-12-16T21:30:18.024Z,1.93
2018-12-16T21:32:47.287Z,1.94
2018-12-16T21:35:17.504Z,1.83
2018-12-16T21:37:46.617Z,1.94
2018-12-16T21:40:15.883Z,1.94
2018-12-16T21:42:44.993Z,1.94
2018-12-16T21:45:14.202Z,2.15
2018-12-16T21:47:43.306Z,2.04
2018-12-16T21:50:12.729Z,2.04
2018-12-16T21:52:41.909Z,2.18
2018-12-16T21:55:10.975Z,2.19
2018-12-16T21:57:40.090Z,2.23
2018-12-16T22:00:09.365Z,2.23
2018-12-16T22:02:38.577Z,2.25
2018-12-16T22:05:09.061Z,2.33
2018-12-16T22:07:38.240Z,2.45
2018-12-16T22:10:07.541Z,2.46
2018-12-16T22:12:36.511Z,2.51
2018-12-16T22:15:05.880Z,2.35
2018-12-16T22:17:35.117Z,2.35
2018-12-16T22:20:04.253Z,2.36
2018-12-16T22:22:33.360Z,2.51
2018-12-16T22:25:02.733Z,2.52
2018-12-16T22:27:31.765Z,2.55
2018-12-16T22:30:01.052Z,2.51
2018-12-16T22:32:30.825Z,2.55
2018-12-16T22:34:59.986Z,2.69
2018-12-16T22:37:29.243Z,2.69
2018-12-16T22:39:58.464Z,2.68
2018-12-16T22:42:27.620Z,2.53
2018-12-16T22:44:56.797Z,2.55
2018-12-16T22:47:26.206Z,2.64
2018-12-16T22:49:55.315Z,2.66
2018-12-16T22:52:24.325Z,2.85
2018-12-16T22:54:53.526Z,2.85
2018-12-16T22:57:22.688Z,2.98
2018-12-16T22:59:52.528Z,3.23
2018-12-16T23:02:21.708Z,3.20
2018-12-16T23:04:50.763Z,3.35
2018-12-16T23:07:19.982Z,3.40
2018-12-16T23:09:49.464Z,3.32
2018-12-16T23:12:18.653Z,3.65
2018-12-16T23:14:47.913Z,3.68
2018-12-16T23:17:17.192Z,3.39
2018-12-16T23:19:50.253Z,3.42
2018-12-16T23:22:19.872Z,3.46
2018-12-16T23:24:49.145Z,3.13
2018-12-16T23:27:18.240Z,3.15
2018-12-16T23:29:47.369Z,3.21
2018-12-16T23:32:17.906Z,3.24
2018-12-16T23:34:48.295Z,3.14
2018-12-16T23:37:21.754Z,3.25
2018-12-16T23:39:54.611Z,3.13
2018-12-16T23:42:23.789Z,3.00
2018-12-16T23:44:52.947Z,2.90
2018-12-16T23:47:22.441Z,3.16
2018-12-16T23:49:51.642Z,2.98
2018-12-16T23:52:20.708Z,2.93
2018-12-16T23:54:51.086Z,2.83
2018-12-16T23:57:20.234Z,2.84
2018-12-16T23:59:49.474Z,2.88
